sensor_id;sensor_type;location;lat;lon;timestamp;P1;durP1;ratioP1;P2;durP2;ratioP2
11604;SDS011;5858;43.076;25.626;2024-03-23T00:55:06;17.23;;;10.87;;
11604;SDS011;5858;43.076;25.626;2024-03-23T00:57:33;16.00;;;11.50;;
11604;SDS011;5858;43.076;25.626;2024-03-23T00:59:58;21.57;;;16.53;;
11604;SDS011;5858;43.076;25.626;2024-03-23T01:02:25;24.03;;;16.20;;
11604;SDS011;5858;43.076;25.626;2024-03-23T01:04:51;22.90;;;13.37;;
11604;SDS011;5858;43.076;25.626;2024-03-23T01:07:18;17.70;;;13.17;;
11604;SDS011;5858;43.076;25.626;2024-03-23T01:09:45;22.00;;;14.13;;
11604;SDS011;5858;43.076;25.626;2024-03-23T01:12:12;20.13;;;12.87;;
11604;SDS011;5858;43.076;25.626;2024-03-23T01:14:38;19.33;;;12.60;;
11604;SDS011;5858;43.076;25.626;2024-03-23T01:17:04;17.53;;;11.63;;
11604;SDS011;5858;43.076;25.626;2024-03-23T01:19:30;25.23;;;15.00;;
11604;SDS011;5858;43.076;25.626;2024-03-23T01:21:57;20.17;;;15.53;;
11604;SDS011;5858;43.076;25.626;2024-03-23T01:24:23;27.80;;;16.27;;
11604;SDS011;5858;43.076;25.626;2024-03-23T01:26:51;25.23;;;16.30;;
11604;SDS011;5858;43.076;25.626;2024-03-23T01:29:17;24.03;;;16.77;;
11604;SDS011;5858;43.076;25.626;2024-03-23T01:31:44;26.87;;;17.20;;
11604;SDS011;5858;43.076;25.626;2024-03-23T01:34:10;23.50;;;15.10;;
11604;SDS011;5858;43.076;25.626;2024-03-23T01:36:37;18.37;;;13.50;;
11604;SDS011;5858;43.076;25.626;2024-03-23T01:39:04;20.23;;;13.23;;
11604;SDS011;5858;43.076;25.626;2024-03-23T01:41:34;21.43;;;13.83;;
11604;SDS011;5858;43.076;25.626;2024-03-23T01:44:01;25.33;;;15.20;;
11604;SDS011;5858;43.076;25.626;2024-03-23T01:46:31;30.63;;;16.77;;
11604;SDS011;5858;43.076;25.626;2024-03-23T01:48:57;36.90;;;18.80;;
11604;SDS011;5858;43.076;25.626;2024-03-23T01:51:25;33.03;;;19.03;;
11604;SDS011;5858;43.076;25.626;2024-03-23T01:53:51;32.90;;;19.80;;
11604;SDS011;5858;43.076;25.626;2024-03-23T01:56:20;38.17;;;20.43;;
11604;SDS011;5858;43.076;25.626;2024-03-23T01:58:46;31.77;;;20.40;;
11604;SDS011;5858;43.076;25.626;2024-03-23T02:01:14;32.43;;;19.90;;
11604;SDS011;5858;43.076;25.626;2024-03-23T02:03:40;30.10;;;20.60;;
11604;SDS011;5858;43.076;25.626;2024-03-23T02:06:07;25.20;;;19.13;;
11604;SDS011;5858;43.076;25.626;2024-03-23T02:08:34;28.20;;;18.93;;
11604;SDS011;5858;43.076;25.626;2024-03-23T02:11:01;27.13;;;18.77;;
11604;SDS011;5858;43.076;25.626;2024-03-23T02:13:27;24.80;;;17.67;;
11604;SDS011;5858;43.076;25.626;2024-03-23T02:15:54;26.40;;;17.13;;
11604;SDS011;5858;43.076;25.626;2024-03-23T02:18:21;22.70;;;15.47;;
11604;SDS011;5858;43.076;25.626;2024-03-23T02:20:48;28.07;;;16.20;;
11604;SDS011;5858;43.076;25.626;2024-03-23T02:23:15;25.00;;;16.43;;
11604;SDS011;5858;43.076;25.626;2024-03-23T02:25:43;26.07;;;16.20;;
11604;SDS011;5858;43.076;25.626;2024-03-23T02:28:08;23.03;;;15.10;;
11604;SDS011;5858;43.076;25.626;2024-03-23T02:30:36;19.17;;;14.60;;
11604;SDS011;5858;43.076;25.626;2024-03-23T02:33:02;23.77;;;14.70;;
11604;SDS011;5858;43.076;25.626;2024-03-23T02:35:29;22.00;;;16.17;;
11604;SDS011;5858;43.076;25.626;2024-03-23T02:37:55;22.50;;;15.03;;
11604;SDS011;5858;43.076;25.626;2024-03-23T02:40:23;22.07;;;15.50;;
11604;SDS011;5858;43.076;25.626;2024-03-23T02:42:50;21.80;;;15.30;;
11604;SDS011;5858;43.076;25.626;2024-03-23T02:45:17;26.87;;;14.60;;
11604;SDS011;5858;43.076;25.626;2024-03-23T02:47:44;19.07;;;14.13;;
11604;SDS011;5858;43.076;25.626;2024-03-23T02:50:09;20.80;;;13.97;;
11604;SDS011;5858;43.076;25.626;2024-03-23T02:52:36;19.57;;;14.10;;
11604;SDS011;5858;43.076;25.626;2024-03-23T02:55:02;21.00;;;14.90;;
11604;SDS011;5858;43.076;25.626;2024-03-23T02:57:32;25.83;;;14.67;;
11604;SDS011;5858;43.076;25.626;2024-03-23T02:59:58;22.60;;;15.87;;
11604;SDS011;5858;43.076;25.626;2024-03-23T03:02:24;28.43;;;15.43;;
11604;SDS011;5858;43.076;25.626;2024-03-23T03:04:50;24.63;;;14.83;;
11604;SDS011;5858;43.076;25.626;2024-03-23T03:07:17;23.20;;;13.83;;
11604;SDS011;5858;43.076;25.626;2024-03-23T03:09:43;22.80;;;14.87;;
11604;SDS011;5858;43.076;25.626;2024-03-23T03:12:10;22.47;;;14.07;;
11604;SDS011;5858;43.076;25.626;2024-03-23T03:14:38;21.40;;;12.67;;
11604;SDS011;5858;43.076;25.626;2024-03-23T03:17:05;19.30;;;13.03;;
11604;SDS011;5858;43.076;25.626;2024-03-23T03:19:30;17.73;;;11.70;;
11604;SDS011;5858;43.076;25.626;2024-03-23T03:22:00;14.73;;;10.97;;
11604;SDS011;5858;43.076;25.626;2024-03-23T03:24:28;14.43;;;9.87;;
11604;SDS011;5858;43.076;25.626;2024-03-23T03:26:55;13.33;;;9.97;;
11604;SDS011;5858;43.076;25.626;2024-03-23T03:29:22;13.27;;;10.87;;
11604;SDS011;5858;43.076;25.626;2024-03-23T03:31:51;15.70;;;11.37;;
11604;SDS011;5858;43.076;25.626;2024-03-23T03:34:16;16.60;;;11.77;;
11604;SDS011;5858;43.076;25.626;2024-03-23T03:36:43;18.43;;;12.03;;
11604;SDS011;5858;43.076;25.626;2024-03-23T03:39:09;15.00;;;11.17;;
11604;SDS011;5858;43.076;25.626;2024-03-23T03:41:37;15.90;;;11.00;;
11604;SDS011;5858;43.076;25.626;2024-03-23T03:44:03;18.40;;;11.40;;
11604;SDS011;5858;43.076;25.626;2024-03-23T03:46:30;14.60;;;11.30;;
11604;SDS011;5858;43.076;25.626;2024-03-23T03:48:58;17.80;;;11.20;;
11604;SDS011;5858;43.076;25.626;2024-03-23T03:51:24;13.60;;;9.47;;
11604;SDS011;5858;43.076;25.626;2024-03-23T03:53:50;14.40;;;9.80;;
11604;SDS011;5858;43.076;25.626;2024-03-23T03:56:19;14.67;;;9.73;;
11604;SDS011;5858;43.076;25.626;2024-03-23T03:58:47;12.33;;;8.50;;
11604;SDS011;5858;43.076;25.626;2024-03-23T04:01:14;12.47;;;8.93;;
11604;SDS011;5858;43.076;25.626;2024-03-23T04:03:40;13.97;;;9.20;;
11604;SDS011;5858;43.076;25.626;2024-03-23T04:06:10;15.63;;;9.80;;
11604;SDS011;5858;43.076;25.626;2024-03-23T04:08:36;13.10;;;9.43;;
11604;SDS011;5858;43.076;25.626;2024-03-23T04:11:03;11.93;;;8.90;;
11604;SDS011;5858;43.076;25.626;2024-03-23T04:13:29;13.03;;;9.53;;
11604;SDS011;5858;43.076;25.626;2024-03-23T04:15:56;12.30;;;9.40;;
11604;SDS011;5858;43.076;25.626;2024-03-23T04:18:22;15.33;;;9.70;;
11604;SDS011;5858;43.076;25.626;2024-03-23T04:20:49;12.73;;;9.57;;
11604;SDS011;5858;43.076;25.626;2024-03-23T04:23:16;15.07;;;9.97;;
11604;SDS011;5858;43.076;25.626;2024-03-23T04:25:43;16.10;;;10.67;;
11604;SDS011;5858;43.076;25.626;2024-03-23T04:28:09;14.00;;;10.10;;
11604;SDS011;5858;43.076;25.626;2024-03-23T04:30:36;14.10;;;10.97;;
11604;SDS011;5858;43.076;25.626;2024-03-23T04:33:02;15.03;;;10.73;;
11604;SDS011;5858;43.076;25.626;2024-03-23T04:35:30;17.03;;;11.20;;
11604;SDS011;5858;43.076;25.626;2024-03-23T04:37:56;14.20;;;10.90;;
11604;SDS011;5858;43.076;25.626;2024-03-23T04:40:25;19.17;;;12.33;;
11604;SDS011;5858;43.076;25.626;2024-03-23T04:42:52;18.10;;;12.63;;
11604;SDS011;5858;43.076;25.626;2024-03-23T04:45:18;14.90;;;12.63;;
11604;SDS011;5858;43.076;25.626;2024-03-23T04:47:45;13.83;;;11.43;;
11604;SDS011;5858;43.076;25.626;2024-03-23T04:50:12;16.33;;;11.67;;
11604;SDS011;5858;43.076;25.626;2024-03-23T04:52:39;15.07;;;10.87;;
11604;SDS011;5858;43.076;25.626;2024-03-23T04:55:06;13.93;;;9.90;;
11604;SDS011;5858;43.076;25.626;2024-03-23T04:57:33;16.47;;;9.67;;
11604;SDS011;5858;43.076;25.626;2024-03-23T05:00:00;12.20;;;9.13;;
11604;SDS011;5858;43.076;25.626;2024-03-23T05:02:26;15.47;;;10.83;;
11604;SDS011;5858;43.076;25.626;2024-03-23T05:04:53;13.43;;;9.70;;
11604;SDS011;5858;43.076;25.626;2024-03-23T05:07:19;14.57;;;9.47;;
11604;SDS011;5858;43.076;25.626;2024-03-23T05:09:46;13.90;;;9.57;;
11604;SDS011;5858;43.076;25.626;2024-03-23T05:12:14;11.27;;;9.20;;
11604;SDS011;5858;43.076;25.626;2024-03-23T05:14:42;14.07;;;9.73;;
11604;SDS011;5858;43.076;25.626;2024-03-23T05:17:08;12.43;;;9.20;;
11604;SDS011;5858;43.076;25.626;2024-03-23T05:19:36;13.17;;;8.57;;
11604;SDS011;5858;43.076;25.626;2024-03-23T05:22:02;13.10;;;8.57;;
11604;SDS011;5858;43.076;25.626;2024-03-23T05:24:29;9.83;;;7.50;;
11604;SDS011;5858;43.076;25.626;2024-03-23T05:26:57;9.97;;;7.57;;
11604;SDS011;5858;43.076;25.626;2024-03-23T05:29:24;11.43;;;7.17;;
11604;SDS011;5858;43.076;25.626;2024-03-23T05:31:52;12.13;;;6.80;;
11604;SDS011;5858;43.076;25.626;2024-03-23T05:34:21;8.03;;;6.23;;
11604;SDS011;5858;43.076;25.626;2024-03-23T05:36:47;9.50;;;6.50;;
11604;SDS011;5858;43.076;25.626;2024-03-23T05:39:15;11.07;;;6.40;;
11604;SDS011;5858;43.076;25.626;2024-03-23T05:41:41;9.17;;;6.47;;
11604;SDS011;5858;43.076;25.626;2024-03-23T05:44:08;8.53;;;5.67;;
11604;SDS011;5858;43.076;25.626;2024-03-23T05:46:35;7.40;;;5.17;;
11604;SDS011;5858;43.076;25.626;2024-03-23T05:49:04;6.90;;;4.47;;
11604;SDS011;5858;43.076;25.626;2024-03-23T05:51:30;5.83;;;4.50;;
11604;SDS011;5858;43.076;25.626;2024-03-23T05:53:57;6.97;;;4.67;;
11604;SDS011;5858;43.076;25.626;2024-03-23T05:56:23;6.80;;;4.90;;
11604;SDS011;5858;43.076;25.626;2024-03-23T05:58:51;6.43;;;4.53;;
11604;SDS011;5858;43.076;25.626;2024-03-23T06:01:17;8.13;;;5.17;;
11604;SDS011;5858;43.076;25.626;2024-03-23T06:03:44;5.53;;;4.27;;
11604;SDS011;5858;43.076;25.626;2024-03-23T06:06:12;6.20;;;4.37;;
11604;SDS011;5858;43.076;25.626;2024-03-23T06:08:39;10.63;;;4.00;;
11604;SDS011;5858;43.076;25.626;2024-03-23T06:11:05;6.20;;;4.67;;
11604;SDS011;5858;43.076;25.626;2024-03-23T06:13:32;6.40;;;4.20;;
11604;SDS011;5858;43.076;25.626;2024-03-23T06:15:59;6.90;;;5.37;;
11604;SDS011;5858;43.076;25.626;2024-03-23T06:18:26;7.10;;;4.73;;
11604;SDS011;5858;43.076;25.626;2024-03-23T06:20:52;7.27;;;4.77;;
11604;SDS011;5858;43.076;25.626;2024-03-23T06:23:21;6.27;;;4.97;;
11604;SDS011;5858;43.076;25.626;2024-03-23T06:25:47;5.70;;;4.53;;
11604;SDS011;5858;43.076;25.626;2024-03-23T06:28:13;6.77;;;4.30;;
11604;SDS011;5858;43.076;25.626;2024-03-23T06:30:39;5.10;;;4.57;;
11604;SDS011;5858;43.076;25.626;2024-03-23T06:33:06;6.70;;;4.27;;
11604;SDS011;5858;43.076;25.626;2024-03-23T06:35:32;6.77;;;4.17;;
11604;SDS011;5858;43.076;25.626;2024-03-23T06:37:59;7.87;;;4.77;;
11604;SDS011;5858;43.076;25.626;2024-03-23T06:40:29;7.63;;;4.47;;
11604;SDS011;5858;43.076;25.626;2024-03-23T06:43:00;7.37;;;4.80;;
11604;SDS011;5858;43.076;25.626;2024-03-23T06:45:26;9.00;;;5.53;;
11604;SDS011;5858;43.076;25.626;2024-03-23T06:47:53;6.20;;;4.07;;
11604;SDS011;5858;43.076;25.626;2024-03-23T06:50:20;7.27;;;4.73;;
11604;SDS011;5858;43.076;25.626;2024-03-23T06:52:49;10.83;;;5.43;;
11604;SDS011;5858;43.076;25.626;2024-03-23T06:55:15;7.03;;;5.23;;
11604;SDS011;5858;43.076;25.626;2024-03-23T06:57:45;7.80;;;5.63;;
11604;SDS011;5858;43.076;25.626;2024-03-23T07:00:11;7.70;;;5.57;;
11604;SDS011;5858;43.076;25.626;2024-03-23T07:02:40;8.67;;;5.50;;
11604;SDS011;5858;43.076;25.626;2024-03-23T07:05:09;8.87;;;5.60;;
11604;SDS011;5858;43.076;25.626;2024-03-23T07:07:37;8.47;;;6.23;;
11604;SDS011;5858;43.076;25.626;2024-03-23T07:10:04;5.97;;;5.20;;
11604;SDS011;5858;43.076;25.626;2024-03-23T07:12:32;6.47;;;5.03;;
11604;SDS011;5858;43.076;25.626;2024-03-23T07:14:59;7.33;;;5.87;;
11604;SDS011;5858;43.076;25.626;2024-03-23T07:17:26;8.53;;;6.30;;
11604;SDS011;5858;43.076;25.626;2024-03-23T07:19:51;9.60;;;6.40;;
11604;SDS011;5858;43.076;25.626;2024-03-23T07:22:18;7.43;;;5.73;;
11604;SDS011;5858;43.076;25.626;2024-03-23T07:24:44;8.50;;;6.43;;
11604;SDS011;5858;43.076;25.626;2024-03-23T07:27:11;10.37;;;6.57;;
11604;SDS011;5858;43.076;25.626;2024-03-23T07:29:37;8.67;;;6.93;;
11604;SDS011;5858;43.076;25.626;2024-03-23T07:32:05;8.60;;;6.97;;
11604;SDS011;5858;43.076;25.626;2024-03-23T07:34:32;8.83;;;7.00;;
11604;SDS011;5858;43.076;25.626;2024-03-23T07:36:58;8.57;;;6.80;;
11604;SDS011;5858;43.076;25.626;2024-03-23T07:39:24;7.90;;;6.87;;
11604;SDS011;5858;43.076;25.626;2024-03-23T07:41:52;8.97;;;6.57;;
11604;SDS011;5858;43.076;25.626;2024-03-23T07:44:18;8.43;;;6.33;;
11604;SDS011;5858;43.076;25.626;2024-03-23T07:46:45;8.03;;;6.40;;
11604;SDS011;5858;43.076;25.626;2024-03-23T07:49:12;11.43;;;6.23;;
11604;SDS011;5858;43.076;25.626;2024-03-23T07:51:39;8.40;;;6.60;;
11604;SDS011;5858;43.076;25.626;2024-03-23T07:54:05;9.63;;;5.77;;
11604;SDS011;5858;43.076;25.626;2024-03-23T07:56:32;8.87;;;5.70;;
11604;SDS011;5858;43.076;25.626;2024-03-23T07:58:58;8.47;;;5.57;;
11604;SDS011;5858;43.076;25.626;2024-03-23T08:01:28;7.70;;;5.40;;
11604;SDS011;5858;43.076;25.626;2024-03-23T08:03:54;9.33;;;5.80;;
11604;SDS011;5858;43.076;25.626;2024-03-23T08:06:23;10.53;;;5.80;;
11604;SDS011;5858;43.076;25.626;2024-03-23T08:08:51;8.13;;;5.57;;
11604;SDS011;5858;43.076;25.626;2024-03-23T08:11:24;5.73;;;4.73;;
11604;SDS011;5858;43.076;25.626;2024-03-23T08:13:50;6.83;;;4.80;;
11604;SDS011;5858;43.076;25.626;2024-03-23T08:16:17;9.27;;;4.77;;
11604;SDS011;5858;43.076;25.626;2024-03-23T08:18:44;9.20;;;3.40;;
11604;SDS011;5858;43.076;25.626;2024-03-23T08:21:10;4.40;;;3.33;;
11604;SDS011;5858;43.076;25.626;2024-03-23T08:23:39;4.33;;;3.73;;
11604;SDS011;5858;43.076;25.626;2024-03-23T08:26:06;3.47;;;3.10;;
11604;SDS011;5858;43.076;25.626;2024-03-23T08:28:34;8.23;;;4.27;;
11604;SDS011;5858;43.076;25.626;2024-03-23T08:31:00;4.03;;;3.10;;
11604;SDS011;5858;43.076;25.626;2024-03-23T08:33:28;3.73;;;3.33;;
11604;SDS011;5858;43.076;25.626;2024-03-23T08:35:54;3.73;;;3.20;;
11604;SDS011;5858;43.076;25.626;2024-03-23T08:38:21;4.23;;;2.87;;
11604;SDS011;5858;43.076;25.626;2024-03-23T08:40:53;4.50;;;2.70;;
11604;SDS011;5858;43.076;25.626;2024-03-23T08:43:23;6.40;;;2.70;;
11604;SDS011;5858;43.076;25.626;2024-03-23T08:45:49;4.83;;;2.93;;
11604;SDS011;5858;43.076;25.626;2024-03-23T08:48:15;4.03;;;2.77;;
11604;SDS011;5858;43.076;25.626;2024-03-23T08:50:41;4.43;;;2.80;;
11604;SDS011;5858;43.076;25.626;2024-03-23T08:53:11;2.63;;;2.40;;
11604;SDS011;5858;43.076;25.626;2024-03-23T08:55:36;2.80;;;2.40;;
11604;SDS011;5858;43.076;25.626;2024-03-23T08:58:05;3.10;;;2.17;;
11604;SDS011;5858;43.076;25.626;2024-03-23T09:00:33;2.97;;;1.97;;
11604;SDS011;5858;43.076;25.626;2024-03-23T09:03:00;3.40;;;2.00;;
11604;SDS011;5858;43.076;25.626;2024-03-23T09:05:27;4.00;;;2.87;;
11604;SDS011;5858;43.076;25.626;2024-03-23T09:08:00;5.57;;;2.83;;
11604;SDS011;5858;43.076;25.626;2024-03-23T09:10:26;4.70;;;2.80;;
11604;SDS011;5858;43.076;25.626;2024-03-23T09:12:56;4.37;;;2.10;;
11604;SDS011;5858;43.076;25.626;2024-03-23T09:18:25;3.90;;;2.03;;
11604;SDS011;5858;43.076;25.626;2024-03-23T09:21:03;2.60;;;2.03;;
11604;SDS011;5858;43.076;25.626;2024-03-23T09:26:56;2.63;;;2.10;;
11604;SDS011;5858;43.076;25.626;2024-03-23T09:29:26;2.38;;;2.10;;
11604;SDS011;5858;43.076;25.626;2024-03-23T09:31:54;3.78;;;2.10;;
11604;SDS011;5858;43.076;25.626;2024-03-23T09:34:21;2.28;;;2.00;;
11604;SDS011;5858;43.076;25.626;2024-03-23T09:36:47;2.78;;;2.42;;
11604;SDS011;5858;43.076;25.626;2024-03-23T09:39:24;2.58;;;1.90;;
11604;SDS011;5858;43.076;25.626;2024-03-23T09:41:50;3.28;;;2.00;;
11604;SDS011;5858;43.076;25.626;2024-03-23T09:44:17;2.65;;;2.13;;
11604;SDS011;5858;43.076;25.626;2024-03-23T09:46:43;2.50;;;2.20;;
11604;SDS011;5858;43.076;25.626;2024-03-23T09:49:11;4.75;;;2.20;;
11604;SDS011;5858;43.076;25.626;2024-03-23T09:51:37;4.57;;;2.40;;
11604;SDS011;5858;43.076;25.626;2024-03-23T09:54:04;1.98;;;1.80;;
11604;SDS011;5858;43.076;25.626;2024-03-23T09:56:30;2.85;;;1.88;;
11604;SDS011;5858;43.076;25.626;2024-03-23T09:59:00;2.85;;;2.13;;
11604;SDS011;5858;43.076;25.626;2024-03-23T10:01:29;4.53;;;2.38;;
11604;SDS011;5858;43.076;25.626;2024-03-23T10:03:56;3.20;;;1.92;;
11604;SDS011;5858;43.076;25.626;2024-03-23T10:06:24;4.78;;;1.80;;
11604;SDS011;5858;43.076;25.626;2024-03-23T10:08:51;2.03;;;1.83;;
11604;SDS011;5858;43.076;25.626;2024-03-23T10:11:18;2.15;;;1.58;;
11604;SDS011;5858;43.076;25.626;2024-03-23T10:13:46;3.47;;;1.85;;
11604;SDS011;5858;43.076;25.626;2024-03-23T10:16:13;3.20;;;2.30;;
11604;SDS011;5858;43.076;25.626;2024-03-23T10:18:48;4.05;;;2.25;;
11604;SDS011;5858;43.076;25.626;2024-03-23T10:21:16;3.17;;;2.22;;
11604;SDS011;5858;43.076;25.626;2024-03-23T10:23:44;2.28;;;1.88;;
11604;SDS011;5858;43.076;25.626;2024-03-23T10:26:16;3.35;;;2.00;;
11604;SDS011;5858;43.076;25.626;2024-03-23T10:28:58;4.78;;;1.95;;
11604;SDS011;5858;43.076;25.626;2024-03-23T10:31:26;2.22;;;1.38;;
11604;SDS011;5858;43.076;25.626;2024-03-23T10:33:53;1.75;;;1.50;;
11604;SDS011;5858;43.076;25.626;2024-03-23T10:36:24;2.10;;;1.90;;
11604;SDS011;5858;43.076;25.626;2024-03-23T10:38:58;3.00;;;1.77;;
11604;SDS011;5858;43.076;25.626;2024-03-23T10:41:30;2.80;;;2.30;;
11604;SDS011;5858;43.076;25.626;2024-03-23T10:43:58;4.07;;;2.72;;
11604;SDS011;5858;43.076;25.626;2024-03-23T10:46:28;4.03;;;1.95;;
11604;SDS011;5858;43.076;25.626;2024-03-23T10:48:57;2.33;;;1.88;;
11604;SDS011;5858;43.076;25.626;2024-03-23T10:51:25;2.35;;;2.15;;
11604;SDS011;5858;43.076;25.626;2024-03-23T10:54:03;3.58;;;1.85;;
11604;SDS011;5858;43.076;25.626;2024-03-23T10:56:38;2.83;;;2.05;;
11604;SDS011;5858;43.076;25.626;2024-03-23T10:59:06;2.60;;;2.10;;
11604;SDS011;5858;43.076;25.626;2024-03-23T11:01:34;2.30;;;2.10;;
11604;SDS011;5858;43.076;25.626;2024-03-23T11:04:31;3.60;;;2.20;;
11604;SDS011;5858;43.076;25.626;2024-03-23T11:10:24;3.15;;;1.77;;
11604;SDS011;5858;43.076;25.626;2024-03-23T11:12:51;4.65;;;2.28;;
11604;SDS011;5858;43.076;25.626;2024-03-23T11:15:18;2.08;;;1.88;;
11604;SDS011;5858;43.076;25.626;2024-03-23T11:17:48;3.30;;;1.95;;
11604;SDS011;5858;43.076;25.626;2024-03-23T11:20:38;2.72;;;2.40;;
11604;SDS011;5858;43.076;25.626;2024-03-23T11:23:06;2.97;;;2.10;;
11604;SDS011;5858;43.076;25.626;2024-03-23T11:25:37;2.30;;;2.10;;
11604;SDS011;5858;43.076;25.626;2024-03-23T11:28:09;4.18;;;2.00;;
11604;SDS011;5858;43.076;25.626;2024-03-23T11:30:40;4.65;;;2.28;;
11604;SDS011;5858;43.076;25.626;2024-03-23T11:33:10;2.30;;;2.05;;
11604;SDS011;5858;43.076;25.626;2024-03-23T11:35:39;3.85;;;2.00;;
11604;SDS011;5858;43.076;25.626;2024-03-23T11:38:06;2.42;;;2.03;;
11604;SDS011;5858;43.076;25.626;2024-03-23T11:40:42;3.55;;;2.42;;
11604;SDS011;5858;43.076;25.626;2024-03-23T11:43:12;3.75;;;1.90;;
11604;SDS011;5858;43.076;25.626;2024-03-23T11:45:42;3.55;;;2.22;;
11604;SDS011;5858;43.076;25.626;2024-03-23T11:48:09;2.53;;;2.22;;
11604;SDS011;5858;43.076;25.626;2024-03-23T11:50:38;2.65;;;1.80;;
11604;SDS011;5858;43.076;25.626;2024-03-23T11:53:09;4.20;;;2.22;;
11604;SDS011;5858;43.076;25.626;2024-03-23T11:55:39;4.03;;;2.13;;
11604;SDS011;5858;43.076;25.626;2024-03-23T11:58:08;3.42;;;2.05;;
11604;SDS011;5858;43.076;25.626;2024-03-23T12:00:35;2.50;;;2.03;;
11604;SDS011;5858;43.076;25.626;2024-03-23T12:03:01;2.20;;;2.00;;
11604;SDS011;5858;43.076;25.626;2024-03-23T12:05:28;3.67;;;2.20;;
11604;SDS011;5858;43.076;25.626;2024-03-23T12:07:54;3.63;;;1.98;;
11604;SDS011;5858;43.076;25.626;2024-03-23T12:10:21;3.72;;;2.17;;
11604;SDS011;5858;43.076;25.626;2024-03-23T12:13:00;3.63;;;2.28;;
11604;SDS011;5858;43.076;25.626;2024-03-23T12:15:27;2.38;;;1.80;;
11604;SDS011;5858;43.076;25.626;2024-03-23T12:18:05;3.55;;;1.98;;
11604;SDS011;5858;43.076;25.626;2024-03-23T12:20:33;2.65;;;2.40;;
11604;SDS011;5858;43.076;25.626;2024-03-23T12:23:04;3.15;;;1.80;;
11604;SDS011;5858;43.076;25.626;2024-03-23T12:25:36;4.35;;;2.25;;
11604;SDS011;5858;43.076;25.626;2024-03-23T12:28:04;2.15;;;1.95;;
11604;SDS011;5858;43.076;25.626;2024-03-23T12:30:33;2.50;;;1.92;;
11604;SDS011;5858;43.076;25.626;2024-03-23T12:33:00;2.38;;;2.17;;
11604;SDS011;5858;43.076;25.626;2024-03-23T12:35:27;2.33;;;2.00;;
11604;SDS011;5858;43.076;25.626;2024-03-23T12:37:52;2.60;;;1.90;;
11604;SDS011;5858;43.076;25.626;2024-03-23T12:40:19;5.05;;;2.30;;
11604;SDS011;5858;43.076;25.626;2024-03-23T12:42:45;2.08;;;1.83;;
11604;SDS011;5858;43.076;25.626;2024-03-23T12:45:14;2.88;;;1.95;;
11604;SDS011;5858;43.076;25.626;2024-03-23T12:47:40;2.03;;;1.70;;
11604;SDS011;5858;43.076;25.626;2024-03-23T12:50:07;3.55;;;2.05;;
11604;SDS011;5858;43.076;25.626;2024-03-23T12:52:34;4.63;;;2.97;;
11604;SDS011;5858;43.076;25.626;2024-03-23T12:55:01;4.88;;;2.30;;
11604;SDS011;5858;43.076;25.626;2024-03-23T12:57:30;3.35;;;2.25;;
11604;SDS011;5858;43.076;25.626;2024-03-23T12:59:57;2.30;;;2.00;;
11604;SDS011;5858;43.076;25.626;2024-03-23T13:02:24;3.33;;;2.05;;
11604;SDS011;5858;43.076;25.626;2024-03-23T13:04:51;3.53;;;2.00;;
11604;SDS011;5858;43.076;25.626;2024-03-23T13:07:19;1.88;;;1.77;;
11604;SDS011;5858;43.076;25.626;2024-03-23T13:09:47;3.88;;;2.38;;
11604;SDS011;5858;43.076;25.626;2024-03-23T13:12:15;2.80;;;2.42;;
11604;SDS011;5858;43.076;25.626;2024-03-23T13:14:43;3.58;;;2.28;;
11604;SDS011;5858;43.076;25.626;2024-03-23T13:17:09;3.58;;;2.30;;
11604;SDS011;5858;43.076;25.626;2024-03-23T13:19:37;2.70;;;2.50;;
11604;SDS011;5858;43.076;25.626;2024-03-23T13:22:03;2.58;;;1.98;;
11604;SDS011;5858;43.076;25.626;2024-03-23T13:24:31;2.88;;;2.10;;
11604;SDS011;5858;43.076;25.626;2024-03-23T13:26:57;2.15;;;1.95;;
11604;SDS011;5858;43.076;25.626;2024-03-23T13:29:24;3.53;;;2.10;;
11604;SDS011;5858;43.076;25.626;2024-03-23T13:31:51;2.33;;;1.85;;
11604;SDS011;5858;43.076;25.626;2024-03-23T13:34:18;3.13;;;2.50;;
11604;SDS011;5858;43.076;25.626;2024-03-23T13:36:46;2.15;;;1.95;;
11604;SDS011;5858;43.076;25.626;2024-03-23T13:39:14;4.10;;;2.08;;
11604;SDS011;5858;43.076;25.626;2024-03-23T13:41:40;3.08;;;2.40;;
11604;SDS011;5858;43.076;25.626;2024-03-23T13:44:10;3.22;;;2.30;;
11604;SDS011;5858;43.076;25.626;2024-03-23T13:46:38;2.40;;;2.17;;
11604;SDS011;5858;43.076;25.626;2024-03-23T13:49:05;2.42;;;1.98;;
11604;SDS011;5858;43.076;25.626;2024-03-23T13:51:31;4.05;;;2.17;;
11604;SDS011;5858;43.076;25.626;2024-03-23T13:54:00;3.45;;;2.20;;
11604;SDS011;5858;43.076;25.626;2024-03-23T13:56:26;3.80;;;2.70;;
11604;SDS011;5858;43.076;25.626;2024-03-23T13:58:54;2.20;;;2.00;;
11604;SDS011;5858;43.076;25.626;2024-03-23T14:01:20;3.08;;;1.92;;
11604;SDS011;5858;43.076;25.626;2024-03-23T14:03:47;3.47;;;2.67;;
11604;SDS011;5858;43.076;25.626;2024-03-23T14:06:14;2.90;;;2.58;;
11604;SDS011;5858;43.076;25.626;2024-03-23T14:08:41;3.35;;;2.30;;
11604;SDS011;5858;43.076;25.626;2024-03-23T14:11:08;3.65;;;2.58;;
11604;SDS011;5858;43.076;25.626;2024-03-23T14:13:35;2.83;;;2.50;;
11604;SDS011;5858;43.076;25.626;2024-03-23T14:16:02;3.50;;;2.30;;
11604;SDS011;5858;43.076;25.626;2024-03-23T14:18:30;2.50;;;2.22;;
11604;SDS011;5858;43.076;25.626;2024-03-23T14:20:56;2.70;;;2.25;;
11604;SDS011;5858;43.076;25.626;2024-03-23T14:23:24;3.33;;;2.08;;
11604;SDS011;5858;43.076;25.626;2024-03-23T14:25:52;4.07;;;2.10;;
11604;SDS011;5858;43.076;25.626;2024-03-23T14:28:21;3.72;;;2.30;;
11604;SDS011;5858;43.076;25.626;2024-03-23T14:30:47;2.30;;;2.10;;
11604;SDS011;5858;43.076;25.626;2024-03-23T14:33:14;2.25;;;2.05;;
11604;SDS011;5858;43.076;25.626;2024-03-23T14:35:40;2.88;;;2.25;;
11604;SDS011;5858;43.076;25.626;2024-03-23T14:38:07;2.22;;;2.03;;
11604;SDS011;5858;43.076;25.626;2024-03-23T14:40:33;2.50;;;2.30;;
11604;SDS011;5858;43.076;25.626;2024-03-23T14:43:00;4.32;;;2.28;;
11604;SDS011;5858;43.076;25.626;2024-03-23T14:45:29;2.92;;;1.90;;
11604;SDS011;5858;43.076;25.626;2024-03-23T14:47:56;2.58;;;2.30;;
11604;SDS011;5858;43.076;25.626;2024-03-23T14:50:23;3.40;;;2.38;;
11604;SDS011;5858;43.076;25.626;2024-03-23T14:52:50;3.50;;;2.13;;
11604;SDS011;5858;43.076;25.626;2024-03-23T14:55:18;5.10;;;2.30;;
11604;SDS011;5858;43.076;25.626;2024-03-23T14:57:45;4.82;;;2.15;;
11604;SDS011;5858;43.076;25.626;2024-03-23T15:00:11;3.65;;;2.78;;
11604;SDS011;5858;43.076;25.626;2024-03-23T15:02:41;2.90;;;2.33;;
11604;SDS011;5858;43.076;25.626;2024-03-23T15:05:07;2.85;;;2.25;;
11604;SDS011;5858;43.076;25.626;2024-03-23T15:07:35;2.13;;;1.92;;
11604;SDS011;5858;43.076;25.626;2024-03-23T15:10:03;3.33;;;2.75;;
11604;SDS011;5858;43.076;25.626;2024-03-23T15:12:30;3.53;;;2.70;;
11604;SDS011;5858;43.076;25.626;2024-03-23T15:15:01;3.95;;;2.47;;
11604;SDS011;5858;43.076;25.626;2024-03-23T15:17:30;3.25;;;2.90;;
11604;SDS011;5858;43.076;25.626;2024-03-23T15:20:02;3.22;;;2.50;;
11604;SDS011;5858;43.076;25.626;2024-03-23T15:22:31;4.03;;;2.47;;
11604;SDS011;5858;43.076;25.626;2024-03-23T15:25:02;3.10;;;2.45;;
11604;SDS011;5858;43.076;25.626;2024-03-23T15:27:32;5.53;;;2.42;;
11604;SDS011;5858;43.076;25.626;2024-03-23T15:29:59;3.97;;;2.85;;
11604;SDS011;5858;43.076;25.626;2024-03-23T15:32:26;3.70;;;2.00;;
11604;SDS011;5858;43.076;25.626;2024-03-23T15:34:53;2.58;;;1.85;;
11604;SDS011;5858;43.076;25.626;2024-03-23T15:37:27;3.00;;;2.30;;
11604;SDS011;5858;43.076;25.626;2024-03-23T15:39:52;2.92;;;2.60;;
11604;SDS011;5858;43.076;25.626;2024-03-23T15:42:19;5.22;;;2.78;;
11604;SDS011;5858;43.076;25.626;2024-03-23T15:44:45;4.55;;;2.63;;
11604;SDS011;5858;43.076;25.626;2024-03-23T15:47:12;2.47;;;2.17;;